CheckWX is a tool to help pilots better visualize weather data.  It is not intended as a substitute for an official pre-flight weather briefing.

00:15:11 UTC

KPWK METAR
Chicago Executive Airport
Chicago/Prospect Heights/Wheeling, Illinois, USA
Current

23 mins ago

KPWK 052352Z 18007KT 10SM CLR 07/00 A2996 RMK AO2 SLP151 T00670000 10078 20061 58001
Observed
Dec-5 @ 23:52 UTC
Wind
  • 180° at 7 KTS
Visibility
10 SM
Flight Rules
VFR
Cloud Levels
  • Clear skies
Temperature
C / 45°F
Dewpoint
C / 32°F
Humidity
61%
Altimeter
29.96" Hg
Pressure
1014.52 hPa
Previous

1 hour ago

KPWK 052252Z 17006KT 10SM BKN120 07/M01 A2997 RMK AO2 SLP153 T00671006
Observed
Dec-5 @ 22:52 UTC
Wind
  • 170° at 6 KTS
Visibility
10 SM
Flight Rules
VFR
Cloud Levels
  • Broken at 12,000' AGL
Temperature
C / 45°F
Dewpoint
-1°C / 30°F
Humidity
57%
Altimeter
29.97" Hg
Pressure
1014.92 hPa
Previous

2 hours ago

KPWK 052152Z 18010KT 10SM FEW120 07/M01 A2996 RMK AO2 SLP152 T00721011
Observed
Dec-5 @ 21:52 UTC
Wind
  • 180° at 10 KTS
Visibility
10 SM
Flight Rules
VFR
Cloud Levels
  • Few at 12,000' AGL
Temperature
C / 45°F
Dewpoint
-1°C / 30°F
Humidity
57%
Altimeter
29.96" Hg
Pressure
1014.52 hPa